sensor_id;sensor_type;location;lat;lon;timestamp;temperature;humidity
74376;HTU21D;62812;55.188;61.302;2023-07-20T00:02:05;19.06;73.71
74376;HTU21D;62812;55.188;61.302;2023-07-20T00:04:33;19.07;73.74
74376;HTU21D;62812;55.188;61.302;2023-07-20T00:07:01;19.12;74.21
74376;HTU21D;62812;55.188;61.302;2023-07-20T00:09:28;19.16;74.38
74376;HTU21D;62812;55.188;61.302;2023-07-20T00:11:55;19.16;74.32
74376;HTU21D;62812;55.188;61.302;2023-07-20T00:14:26;19.17;74.15
74376;HTU21D;62812;55.188;61.302;2023-07-20T00:16:55;19.12;74.52
74376;HTU21D;62812;55.188;61.302;2023-07-20T00:19:24;19.01;74.65
74376;HTU21D;62812;55.188;61.302;2023-07-20T00:21:51;18.99;75.19
74376;HTU21D;62812;55.188;61.302;2023-07-20T00:24:17;19.06;75.47
74376;HTU21D;62812;55.188;61.302;2023-07-20T00:26:44;19.22;74.94
74376;HTU21D;62812;55.188;61.302;2023-07-20T00:29:11;19.40;74.18
74376;HTU21D;62812;55.188;61.302;2023-07-20T00:31:40;19.56;73.44
74376;HTU21D;62812;55.188;61.302;2023-07-20T00:34:07;19.73;72.72
74376;HTU21D;62812;55.188;61.302;2023-07-20T00:36:40;19.94;72.04
74376;HTU21D;62812;55.188;61.302;2023-07-20T00:39:07;20.18;71.06
74376;HTU21D;62812;55.188;61.302;2023-07-20T00:41:34;20.35;69.75
74376;HTU21D;62812;55.188;61.302;2023-07-20T00:44:03;20.47;69.66
74376;HTU21D;62812;55.188;61.302;2023-07-20T00:46:30;20.62;68.82
74376;HTU21D;62812;55.188;61.302;2023-07-20T00:48:59;20.71;68.50
74376;HTU21D;62812;55.188;61.302;2023-07-20T00:51:26;20.69;68.40
74376;HTU21D;62812;55.188;61.302;2023-07-20T00:53:54;20.63;68.01
74376;HTU21D;62812;55.188;61.302;2023-07-20T00:56:22;20.55;68.84
74376;HTU21D;62812;55.188;61.302;2023-07-20T00:58:49;20.40;69.53
74376;HTU21D;62812;55.188;61.302;2023-07-20T01:01:16;20.56;69.39
74376;HTU21D;62812;55.188;61.302;2023-07-20T01:03:42;20.83;68.87
74376;HTU21D;62812;55.188;61.302;2023-07-20T01:06:18;21.08;67.70
74376;HTU21D;62812;55.188;61.302;2023-07-20T01:08:51;21.45;66.12
74376;HTU21D;62812;55.188;61.302;2023-07-20T01:11:28;21.64;65.08
74376;HTU21D;62812;55.188;61.302;2023-07-20T01:13:58;21.63;64.89
74376;HTU21D;62812;55.188;61.302;2023-07-20T01:16:30;21.50;65.22
74376;HTU21D;62812;55.188;61.302;2023-07-20T01:18:57;21.52;65.43
74376;HTU21D;62812;55.188;61.302;2023-07-20T01:21:30;21.57;65.43
74376;HTU21D;62812;55.188;61.302;2023-07-20T01:27:36;21.48;65.21
74376;HTU21D;62812;55.188;61.302;2023-07-20T01:30:18;21.53;65.33
74376;HTU21D;62812;55.188;61.302;2023-07-20T01:32:54;21.81;64.87
74376;HTU21D;62812;55.188;61.302;2023-07-20T01:35:25;22.14;63.63
74376;HTU21D;62812;55.188;61.302;2023-07-20T01:37:59;22.63;62.39
74376;HTU21D;62812;55.188;61.302;2023-07-20T01:40:26;22.96;61.12
74376;HTU21D;62812;55.188;61.302;2023-07-20T01:42:53;22.95;60.97
74376;HTU21D;62812;55.188;61.302;2023-07-20T01:45:20;23.06;60.31
74376;HTU21D;62812;55.188;61.302;2023-07-20T01:47:50;23.28;59.73
74376;HTU21D;62812;55.188;61.302;2023-07-20T01:50:18;23.13;59.83
74376;HTU21D;62812;55.188;61.302;2023-07-20T01:52:45;23.07;59.86
74376;HTU21D;62812;55.188;61.302;2023-07-20T01:55:11;23.36;59.63
74376;HTU21D;62812;55.188;61.302;2023-07-20T01:57:38;23.57;57.87
74376;HTU21D;62812;55.188;61.302;2023-07-20T02:00:06;23.67;58.21
74376;HTU21D;62812;55.188;61.302;2023-07-20T02:02:33;24.02;57.25
74376;HTU21D;62812;55.188;61.302;2023-07-20T02:05:00;24.11;56.77
74376;HTU21D;62812;55.188;61.302;2023-07-20T02:07:28;24.39;56.11
74376;HTU21D;62812;55.188;61.302;2023-07-20T02:09:55;24.69;54.62
74376;HTU21D;62812;55.188;61.302;2023-07-20T02:12:21;24.77;55.00
74376;HTU21D;62812;55.188;61.302;2023-07-20T02:14:48;25.07;53.62
74376;HTU21D;62812;55.188;61.302;2023-07-20T02:17:20;25.56;52.69
74376;HTU21D;62812;55.188;61.302;2023-07-20T02:19:50;25.87;51.90
74376;HTU21D;62812;55.188;61.302;2023-07-20T02:22:17;26.31;51.23
74376;HTU21D;62812;55.188;61.302;2023-07-20T02:24:45;26.84;49.42
74376;HTU21D;62812;55.188;61.302;2023-07-20T02:27:12;27.06;49.18
74376;HTU21D;62812;55.188;61.302;2023-07-20T02:29:40;27.41;48.59
74376;HTU21D;62812;55.188;61.302;2023-07-20T02:32:08;27.63;47.62
74376;HTU21D;62812;55.188;61.302;2023-07-20T02:34:36;27.73;47.02
74376;HTU21D;62812;55.188;61.302;2023-07-20T02:37:03;27.95;47.19
74376;HTU21D;62812;55.188;61.302;2023-07-20T02:39:30;28.15;46.67
74376;HTU21D;62812;55.188;61.302;2023-07-20T02:41:58;28.33;46.38
74376;HTU21D;62812;55.188;61.302;2023-07-20T02:44:28;28.58;45.66
74376;HTU21D;62812;55.188;61.302;2023-07-20T02:46:55;28.65;49.13
74376;HTU21D;62812;55.188;61.302;2023-07-20T02:49:22;29.52;46.27
74376;HTU21D;62812;55.188;61.302;2023-07-20T02:51:50;30.50;43.34
74376;HTU21D;62812;55.188;61.302;2023-07-20T02:54:17;31.35;40.60
74376;HTU21D;62812;55.188;61.302;2023-07-20T02:56:44;32.00;39.16
74376;HTU21D;62812;55.188;61.302;2023-07-20T02:59:12;32.45;37.62
74376;HTU21D;62812;55.188;61.302;2023-07-20T03:01:39;32.53;36.77
74376;HTU21D;62812;55.188;61.302;2023-07-20T03:04:08;32.61;36.83
74376;HTU21D;62812;55.188;61.302;2023-07-20T03:06:38;32.67;36.69
74376;HTU21D;62812;55.188;61.302;2023-07-20T03:09:05;32.72;36.15
74376;HTU21D;62812;55.188;61.302;2023-07-20T03:11:33;32.48;36.40
74376;HTU21D;62812;55.188;61.302;2023-07-20T03:14:00;32.33;36.64
74376;HTU21D;62812;55.188;61.302;2023-07-20T03:16:30;32.26;37.09
74376;HTU21D;62812;55.188;61.302;2023-07-20T03:19:03;32.28;36.71
74376;HTU21D;62812;55.188;61.302;2023-07-20T03:21:31;32.23;36.59
74376;HTU21D;62812;55.188;61.302;2023-07-20T03:24:02;32.10;36.86
74376;HTU21D;62812;55.188;61.302;2023-07-20T03:26:29;32.10;36.88
74376;HTU21D;62812;55.188;61.302;2023-07-20T03:28:56;32.15;36.65
74376;HTU21D;62812;55.188;61.302;2023-07-20T03:31:23;32.20;36.59
74376;HTU21D;62812;55.188;61.302;2023-07-20T03:33:52;32.12;36.85
74376;HTU21D;62812;55.188;61.302;2023-07-20T03:36:19;32.12;36.64
74376;HTU21D;62812;55.188;61.302;2023-07-20T03:38:48;32.18;36.81
74376;HTU21D;62812;55.188;61.302;2023-07-20T03:41:21;32.19;36.45
74376;HTU21D;62812;55.188;61.302;2023-07-20T03:43:49;32.14;36.56
74376;HTU21D;62812;55.188;61.302;2023-07-20T03:46:16;32.24;36.38
74376;HTU21D;62812;55.188;61.302;2023-07-20T03:48:42;32.45;36.50
74376;HTU21D;62812;55.188;61.302;2023-07-20T03:51:13;32.48;36.24
74376;HTU21D;62812;55.188;61.302;2023-07-20T03:53:40;32.57;36.13
74376;HTU21D;62812;55.188;61.302;2023-07-20T03:56:07;32.56;35.61
74376;HTU21D;62812;55.188;61.302;2023-07-20T03:58:33;32.54;35.88
74376;HTU21D;62812;55.188;61.302;2023-07-20T04:01:00;32.42;35.99
74376;HTU21D;62812;55.188;61.302;2023-07-20T04:03:27;32.33;36.21
74376;HTU21D;62812;55.188;61.302;2023-07-20T04:05:55;32.42;35.98
74376;HTU21D;62812;55.188;61.302;2023-07-20T04:08:24;32.42;35.92
74376;HTU21D;62812;55.188;61.302;2023-07-20T04:10:51;32.29;36.15
74376;HTU21D;62812;55.188;61.302;2023-07-20T04:13:18;32.34;36.02
74376;HTU21D;62812;55.188;61.302;2023-07-20T04:15:45;32.45;35.82
74376;HTU21D;62812;55.188;61.302;2023-07-20T04:18:12;32.29;35.94
74376;HTU21D;62812;55.188;61.302;2023-07-20T04:20:43;32.08;36.50
74376;HTU21D;62812;55.188;61.302;2023-07-20T04:23:10;31.89;36.81
74376;HTU21D;62812;55.188;61.302;2023-07-20T04:25:41;31.80;37.02
74376;HTU21D;62812;55.188;61.302;2023-07-20T04:28:08;31.81;37.52
74376;HTU21D;62812;55.188;61.302;2023-07-20T04:30:38;31.88;37.32
74376;HTU21D;62812;55.188;61.302;2023-07-20T04:33:06;31.89;37.03
74376;HTU21D;62812;55.188;61.302;2023-07-20T04:35:47;31.71;37.60
74376;HTU21D;62812;55.188;61.302;2023-07-20T04:38:14;31.67;38.16
74376;HTU21D;62812;55.188;61.302;2023-07-20T04:40:46;31.82;37.89
74376;HTU21D;62812;55.188;61.302;2023-07-20T04:43:14;31.92;37.89
74376;HTU21D;62812;55.188;61.302;2023-07-20T04:45:41;32.13;37.27
74376;HTU21D;62812;55.188;61.302;2023-07-20T04:48:11;32.24;36.92
74376;HTU21D;62812;55.188;61.302;2023-07-20T04:50:38;32.32;37.37
74376;HTU21D;62812;55.188;61.302;2023-07-20T04:53:05;32.18;37.66
74376;HTU21D;62812;55.188;61.302;2023-07-20T04:55:33;31.93;37.50
74376;HTU21D;62812;55.188;61.302;2023-07-20T04:58:03;31.92;38.26
74376;HTU21D;62812;55.188;61.302;2023-07-20T05:00:32;32.03;37.94
74376;HTU21D;62812;55.188;61.302;2023-07-20T05:03:00;31.78;38.38
74376;HTU21D;62812;55.188;61.302;2023-07-20T05:05:27;31.42;39.14
74376;HTU21D;62812;55.188;61.302;2023-07-20T05:07:56;31.48;39.39
74376;HTU21D;62812;55.188;61.302;2023-07-20T05:10:23;31.64;39.40
74376;HTU21D;62812;55.188;61.302;2023-07-20T05:12:50;31.87;38.82
74376;HTU21D;62812;55.188;61.302;2023-07-20T05:15:18;32.00;39.01
74376;HTU21D;62812;55.188;61.302;2023-07-20T05:17:45;31.88;38.43
74376;HTU21D;62812;55.188;61.302;2023-07-20T05:20:12;31.22;40.79
74376;HTU21D;62812;55.188;61.302;2023-07-20T05:22:43;31.25;41.27
74376;HTU21D;62812;55.188;61.302;2023-07-20T05:25:11;31.25;41.03
74376;HTU21D;62812;55.188;61.302;2023-07-20T05:27:39;31.66;39.93
74376;HTU21D;62812;55.188;61.302;2023-07-20T05:30:07;31.98;38.96
74376;HTU21D;62812;55.188;61.302;2023-07-20T05:32:35;31.82;39.04
74376;HTU21D;62812;55.188;61.302;2023-07-20T05:35:02;31.92;38.56
74376;HTU21D;62812;55.188;61.302;2023-07-20T05:37:30;31.96;38.48
74376;HTU21D;62812;55.188;61.302;2023-07-20T05:39:57;31.96;38.43
74376;HTU21D;62812;55.188;61.302;2023-07-20T05:42:24;32.02;37.61
74376;HTU21D;62812;55.188;61.302;2023-07-20T05:44:52;31.95;37.27
74376;HTU21D;62812;55.188;61.302;2023-07-20T05:47:22;31.72;37.15
74376;HTU21D;62812;55.188;61.302;2023-07-20T05:49:50;31.64;37.28
74376;HTU21D;62812;55.188;61.302;2023-07-20T05:52:17;31.49;37.37
74376;HTU21D;62812;55.188;61.302;2023-07-20T05:54:44;31.05;38.33
74376;HTU21D;62812;55.188;61.302;2023-07-20T05:57:11;30.56;41.16
74376;HTU21D;62812;55.188;61.302;2023-07-20T05:59:38;29.95;42.25
74376;HTU21D;62812;55.188;61.302;2023-07-20T06:02:09;29.90;41.58
74376;HTU21D;62812;55.188;61.302;2023-07-20T06:04:36;29.46;42.32
74376;HTU21D;62812;55.188;61.302;2023-07-20T06:07:11;29.13;43.51
74376;HTU21D;62812;55.188;61.302;2023-07-20T06:09:38;28.93;44.16
74376;HTU21D;62812;55.188;61.302;2023-07-20T06:12:06;28.80;44.28
74376;HTU21D;62812;55.188;61.302;2023-07-20T06:14:33;28.73;45.26
74376;HTU21D;62812;55.188;61.302;2023-07-20T06:17:01;28.82;46.44
74376;HTU21D;62812;55.188;61.302;2023-07-20T06:19:29;28.63;44.83
74376;HTU21D;62812;55.188;61.302;2023-07-20T06:22:08;28.65;45.23
74376;HTU21D;62812;55.188;61.302;2023-07-20T06:24:36;28.43;46.36
74376;HTU21D;62812;55.188;61.302;2023-07-20T06:27:04;28.37;46.71
74376;HTU21D;62812;55.188;61.302;2023-07-20T06:29:32;28.49;47.18
74376;HTU21D;62812;55.188;61.302;2023-07-20T06:31:59;28.55;45.70
74376;HTU21D;62812;55.188;61.302;2023-07-20T06:34:27;28.52;46.15
74376;HTU21D;62812;55.188;61.302;2023-07-20T06:36:54;28.41;47.38
74376;HTU21D;62812;55.188;61.302;2023-07-20T06:39:22;28.76;46.21
74376;HTU21D;62812;55.188;61.302;2023-07-20T06:41:51;28.91;45.52
74376;HTU21D;62812;55.188;61.302;2023-07-20T06:44:19;28.86;45.17
74376;HTU21D;62812;55.188;61.302;2023-07-20T06:46:50;28.84;46.06
74376;HTU21D;62812;55.188;61.302;2023-07-20T06:49:24;29.06;45.81
74376;HTU21D;62812;55.188;61.302;2023-07-20T06:51:53;29.09;44.25
74376;HTU21D;62812;55.188;61.302;2023-07-20T06:54:22;29.08;44.56
74376;HTU21D;62812;55.188;61.302;2023-07-20T06:56:49;29.01;44.58
74376;HTU21D;62812;55.188;61.302;2023-07-20T06:59:16;28.84;45.75
74376;HTU21D;62812;55.188;61.302;2023-07-20T07:01:44;28.97;46.04
74376;HTU21D;62812;55.188;61.302;2023-07-20T07:04:12;29.17;44.80
74376;HTU21D;62812;55.188;61.302;2023-07-20T07:06:40;29.05;46.17
74376;HTU21D;62812;55.188;61.302;2023-07-20T07:09:07;29.16;45.88
74376;HTU21D;62812;55.188;61.302;2023-07-20T07:11:38;29.36;43.45
74376;HTU21D;62812;55.188;61.302;2023-07-20T07:14:05;29.26;43.94
74376;HTU21D;62812;55.188;61.302;2023-07-20T07:16:32;28.97;43.97
74376;HTU21D;62812;55.188;61.302;2023-07-20T07:18:59;29.00;44.32
74376;HTU21D;62812;55.188;61.302;2023-07-20T07:21:26;29.00;43.94
74376;HTU21D;62812;55.188;61.302;2023-07-20T07:23:56;29.17;41.28
74376;HTU21D;62812;55.188;61.302;2023-07-20T07:26:28;28.71;43.03
74376;HTU21D;62812;55.188;61.302;2023-07-20T07:28:57;28.38;44.22
74376;HTU21D;62812;55.188;61.302;2023-07-20T07:31:25;28.29;44.42
74376;HTU21D;62812;55.188;61.302;2023-07-20T07:34:00;28.10;46.25
74376;HTU21D;62812;55.188;61.302;2023-07-20T07:36:27;28.04;45.73
74376;HTU21D;62812;55.188;61.302;2023-07-20T07:38:54;27.97;45.86
74376;HTU21D;62812;55.188;61.302;2023-07-20T07:41:21;27.99;46.67
74376;HTU21D;62812;55.188;61.302;2023-07-20T07:43:59;28.04;46.15
74376;HTU21D;62812;55.188;61.302;2023-07-20T07:46:29;28.19;46.71
74376;HTU21D;62812;55.188;61.302;2023-07-20T07:48:58;28.27;45.22
74376;HTU21D;62812;55.188;61.302;2023-07-20T07:51:25;28.53;46.28
74376;HTU21D;62812;55.188;61.302;2023-07-20T07:53:56;28.70;45.22
74376;HTU21D;62812;55.188;61.302;2023-07-20T07:56:29;28.77;44.14
74376;HTU21D;62812;55.188;61.302;2023-07-20T07:59:02;28.73;44.21
74376;HTU21D;62812;55.188;61.302;2023-07-20T08:01:40;28.90;45.24
74376;HTU21D;62812;55.188;61.302;2023-07-20T08:04:09;29.00;43.98
74376;HTU21D;62812;55.188;61.302;2023-07-20T08:06:44;28.68;43.67
74376;HTU21D;62812;55.188;61.302;2023-07-20T08:09:13;28.52;44.87
74376;HTU21D;62812;55.188;61.302;2023-07-20T08:11:41;28.73;46.42
74376;HTU21D;62812;55.188;61.302;2023-07-20T08:14:10;28.65;44.38
74376;HTU21D;62812;55.188;61.302;2023-07-20T08:16:41;28.69;43.74
74376;HTU21D;62812;55.188;61.302;2023-07-20T08:19:08;28.82;45.11
74376;HTU21D;62812;55.188;61.302;2023-07-20T08:21:39;28.89;43.38
74376;HTU21D;62812;55.188;61.302;2023-07-20T08:24:18;28.89;42.78
74376;HTU21D;62812;55.188;61.302;2023-07-20T08:26:52;28.67;43.84
74376;HTU21D;62812;55.188;61.302;2023-07-20T08:29:22;28.64;45.49
74376;HTU21D;62812;55.188;61.302;2023-07-20T08:31:49;28.79;42.43
74376;HTU21D;62812;55.188;61.302;2023-07-20T08:34:16;28.68;40.23
74376;HTU21D;62812;55.188;61.302;2023-07-20T08:36:43;28.57;41.06
74376;HTU21D;62812;55.188;61.302;2023-07-20T08:39:10;28.45;41.52
74376;HTU21D;62812;55.188;61.302;2023-07-20T08:41:42;28.48;41.26
74376;HTU21D;62812;55.188;61.302;2023-07-20T08:44:10;28.64;44.80
74376;HTU21D;62812;55.188;61.302;2023-07-20T08:46:42;28.89;38.98
74376;HTU21D;62812;55.188;61.302;2023-07-20T08:49:11;28.89;38.89
74376;HTU21D;62812;55.188;61.302;2023-07-20T08:51:39;28.92;42.49
74376;HTU21D;62812;55.188;61.302;2023-07-20T08:54:07;28.86;38.55
74376;HTU21D;62812;55.188;61.302;2023-07-20T08:56:38;28.82;43.93
74376;HTU21D;62812;55.188;61.302;2023-07-20T08:59:07;28.91;37.08
74376;HTU21D;62812;55.188;61.302;2023-07-20T09:01:35;28.95;41.62
74376;HTU21D;62812;55.188;61.302;2023-07-20T09:04:05;29.04;35.58
74376;HTU21D;62812;55.188;61.302;2023-07-20T09:06:32;28.99;34.91
74376;HTU21D;62812;55.188;61.302;2023-07-20T09:09:01;28.90;39.59
74376;HTU21D;62812;55.188;61.302;2023-07-20T09:11:29;28.82;37.15
74376;HTU21D;62812;55.188;61.302;2023-07-20T09:14:08;28.68;39.43
74376;HTU21D;62812;55.188;61.302;2023-07-20T09:16:47;28.73;41.10
74376;HTU21D;62812;55.188;61.302;2023-07-20T09:19:18;28.70;35.69
74376;HTU21D;62812;55.188;61.302;2023-07-20T09:21:45;28.53;35.69
74376;HTU21D;62812;55.188;61.302;2023-07-20T09:24:13;28.56;36.25
74376;HTU21D;62812;55.188;61.302;2023-07-20T09:26:41;28.47;39.65
74376;HTU21D;62812;55.188;61.302;2023-07-20T09:29:13;28.35;36.43
74376;HTU21D;62812;55.188;61.302;2023-07-20T09:31:58;28.31;36.40
74376;HTU21D;62812;55.188;61.302;2023-07-20T09:34:28;28.39;36.32
74376;HTU21D;62812;55.188;61.302;2023-07-20T09:36:56;28.46;37.06
74376;HTU21D;62812;55.188;61.302;2023-07-20T09:39:23;28.62;37.17
74376;HTU21D;62812;55.188;61.302;2023-07-20T09:54:55;29.43;37.56
74376;HTU21D;62812;55.188;61.302;2023-07-20T09:57:30;29.49;38.86
74376;HTU21D;62812;55.188;61.302;2023-07-20T09:59:59;29.62;35.24
74376;HTU21D;62812;55.188;61.302;2023-07-20T10:02:36;29.44;34.89
74376;HTU21D;62812;55.188;61.302;2023-07-20T10:05:10;29.50;34.09
74376;HTU21D;62812;55.188;61.302;2023-07-20T10:07:43;29.48;38.06
74376;HTU21D;62812;55.188;61.302;2023-07-20T10:10:19;29.64;41.97
74376;HTU21D;62812;55.188;61.302;2023-07-20T10:12:48;29.63;33.89
74376;HTU21D;62812;55.188;61.302;2023-07-20T10:15:19;29.63;37.43
74376;HTU21D;62812;55.188;61.302;2023-07-20T10:18:05;29.74;34.84
74376;HTU21D;62812;55.188;61.302;2023-07-20T10:20:36;29.54;34.06
74376;HTU21D;62812;55.188;61.302;2023-07-20T10:23:04;29.54;41.26
74376;HTU21D;62812;55.188;61.302;2023-07-20T10:25:39;29.44;35.31
74376;HTU21D;62812;55.188;61.302;2023-07-20T10:28:13;29.41;41.20
74376;HTU21D;62812;55.188;61.302;2023-07-20T10:30:46;29.45;40.19
74376;HTU21D;62812;55.188;61.302;2023-07-20T10:33:17;29.56;37.95
74376;HTU21D;62812;55.188;61.302;2023-07-20T10:36:02;29.58;39.95
74376;HTU21D;62812;55.188;61.302;2023-07-20T10:42:02;29.37;32.54
74376;HTU21D;62812;55.188;61.302;2023-07-20T10:44:39;29.30;36.26
74376;HTU21D;62812;55.188;61.302;2023-07-20T10:47:23;29.23;33.57
74376;HTU21D;62812;55.188;61.302;2023-07-20T10:50:01;29.14;34.00
74376;HTU21D;62812;55.188;61.302;2023-07-20T10:52:37;29.19;34.36
74376;HTU21D;62812;55.188;61.302;2023-07-20T10:55:39;29.19;37.45
74376;HTU21D;62812;55.188;61.302;2023-07-20T10:58:20;29.16;39.75
74376;HTU21D;62812;55.188;61.302;2023-07-20T11:01:05;29.17;32.95
74376;HTU21D;62812;55.188;61.302;2023-07-20T11:03:43;29.15;39.58
74376;HTU21D;62812;55.188;61.302;2023-07-20T11:06:44;29.17;35.47
74376;HTU21D;62812;55.188;61.302;2023-07-20T11:09:12;29.37;42.38
74376;HTU21D;62812;55.188;61.302;2023-07-20T11:11:44;29.57;41.66
74376;HTU21D;62812;55.188;61.302;2023-07-20T11:14:22;29.61;38.75
74376;HTU21D;62812;55.188;61.302;2023-07-20T11:16:50;29.65;38.11
74376;HTU21D;62812;55.188;61.302;2023-07-20T11:19:21;29.65;37.56
74376;HTU21D;62812;55.188;61.302;2023-07-20T11:22:13;29.67;37.69
74376;HTU21D;62812;55.188;61.302;2023-07-20T11:25:51;29.73;36.48
74376;HTU21D;62812;55.188;61.302;2023-07-20T11:29:32;29.73;37.81
74376;HTU21D;62812;55.188;61.302;2023-07-20T11:32:49;29.77;38.26
74376;HTU21D;62812;55.188;61.302;2023-07-20T11:35:50;29.76;38.20
74376;HTU21D;62812;55.188;61.302;2023-07-20T11:43:21;29.66;38.46
74376;HTU21D;62812;55.188;61.302;2023-07-20T12:04:39;29.42;36.80
74376;HTU21D;62812;55.188;61.302;2023-07-20T12:07:11;29.39;37.09
74376;HTU21D;62812;55.188;61.302;2023-07-20T12:09:39;29.41;37.06
74376;HTU21D;62812;55.188;61.302;2023-07-20T12:12:10;29.42;37.11
74376;HTU21D;62812;55.188;61.302;2023-07-20T12:14:41;29.38;36.81
74376;HTU21D;62812;55.188;61.302;2023-07-20T12:17:11;29.32;36.79
74376;HTU21D;62812;55.188;61.302;2023-07-20T12:19:43;29.30;35.96
74376;HTU21D;62812;55.188;61.302;2023-07-20T12:22:10;29.35;36.97
74376;HTU21D;62812;55.188;61.302;2023-07-20T12:24:38;29.39;36.76
74376;HTU21D;62812;55.188;61.302;2023-07-20T12:27:06;29.45;36.99
74376;HTU21D;62812;55.188;61.302;2023-07-20T12:29:37;29.50;37.05
74376;HTU21D;62812;55.188;61.302;2023-07-20T12:32:05;29.61;36.71
74376;HTU21D;62812;55.188;61.302;2023-07-20T12:34:38;29.65;36.33
74376;HTU21D;62812;55.188;61.302;2023-07-20T12:37:07;29.64;36.17
74376;HTU21D;62812;55.188;61.302;2023-07-20T12:39:33;29.68;36.20
74376;HTU21D;62812;55.188;61.302;2023-07-20T12:42:00;29.73;36.07
74376;HTU21D;62812;55.188;61.302;2023-07-20T12:44:29;29.75;35.62
74376;HTU21D;62812;55.188;61.302;2023-07-20T12:46:56;29.56;33.29
74376;HTU21D;62812;55.188;61.302;2023-07-20T12:49:23;29.53;36.18
74376;HTU21D;62812;55.188;61.302;2023-07-20T12:51:50;29.52;36.03
74376;HTU21D;62812;55.188;61.302;2023-07-20T12:54:18;29.48;35.94
74376;HTU21D;62812;55.188;61.302;2023-07-20T12:56:45;29.49;36.06
74376;HTU21D;62812;55.188;61.302;2023-07-20T12:59:14;29.45;35.82
74376;HTU21D;62812;55.188;61.302;2023-07-20T13:01:52;29.38;35.60
74376;HTU21D;62812;55.188;61.302;2023-07-20T13:04:26;29.30;36.05
74376;HTU21D;62812;55.188;61.302;2023-07-20T13:06:53;29.21;36.58
74376;HTU21D;62812;55.188;61.302;2023-07-20T13:09:23;29.22;37.33
74376;HTU21D;62812;55.188;61.302;2023-07-20T13:11:50;29.23;37.59
74376;HTU21D;62812;55.188;61.302;2023-07-20T13:14:17;29.24;37.98
74376;HTU21D;62812;55.188;61.302;2023-07-20T13:16:46;29.17;37.43
74376;HTU21D;62812;55.188;61.302;2023-07-20T13:19:16;29.17;38.45
74376;HTU21D;62812;55.188;61.302;2023-07-20T13:21:42;29.19;38.80
74376;HTU21D;62812;55.188;61.302;2023-07-20T13:24:17;29.22;38.59
74376;HTU21D;62812;55.188;61.302;2023-07-20T13:26:48;29.13;36.88
74376;HTU21D;62812;55.188;61.302;2023-07-20T13:29:15;29.13;38.70
74376;HTU21D;62812;55.188;61.302;2023-07-20T13:31:42;29.13;37.27
74376;HTU21D;62812;55.188;61.302;2023-07-20T13:34:10;29.01;38.63
74376;HTU21D;62812;55.188;61.302;2023-07-20T13:36:41;28.91;38.68
74376;HTU21D;62812;55.188;61.302;2023-07-20T13:39:11;28.92;38.46
74376;HTU21D;62812;55.188;61.302;2023-07-20T13:42:00;28.95;38.35
74376;HTU21D;62812;55.188;61.302;2023-07-20T13:45:22;28.76;38.43
74376;HTU21D;62812;55.188;61.302;2023-07-20T13:48:11;28.76;38.32
74376;HTU21D;62812;55.188;61.302;2023-07-20T13:51:11;28.74;37.88
74376;HTU21D;62812;55.188;61.302;2023-07-20T13:54:34;28.68;36.92
74376;HTU21D;62812;55.188;61.302;2023-07-20T13:57:30;28.62;36.23
74376;HTU21D;62812;55.188;61.302;2023-07-20T13:59:58;28.53;36.05
74376;HTU21D;62812;55.188;61.302;2023-07-20T14:02:29;28.48;36.30
74376;HTU21D;62812;55.188;61.302;2023-07-20T14:04:57;28.44;35.84
74376;HTU21D;62812;55.188;61.302;2023-07-20T14:07:37;28.35;36.08
74376;HTU21D;62812;55.188;61.302;2023-07-20T14:10:23;28.27;36.09
74376;HTU21D;62812;55.188;61.302;2023-07-20T14:12:58;28.23;35.85
74376;HTU21D;62812;55.188;61.302;2023-07-20T14:16:03;28.17;36.06
74376;HTU21D;62812;55.188;61.302;2023-07-20T14:18:47;28.12;35.91
74376;HTU21D;62812;55.188;61.302;2023-07-20T14:21:43;28.02;35.76
74376;HTU21D;62812;55.188;61.302;2023-07-20T14:24:14;27.96;35.53
74376;HTU21D;62812;55.188;61.302;2023-07-20T14:26:43;27.85;35.66
74376;HTU21D;62812;55.188;61.302;2023-07-20T14:29:21;27.76;34.08
74376;HTU21D;62812;55.188;61.302;2023-07-20T14:31:58;27.65;35.66
74376;HTU21D;62812;55.188;61.302;2023-07-20T14:34:26;27.65;35.24
74376;HTU21D;62812;55.188;61.302;2023-07-20T14:36:54;27.47;37.05
74376;HTU21D;62812;55.188;61.302;2023-07-20T14:39:24;27.36;37.38
74376;HTU21D;62812;55.188;61.302;2023-07-20T14:42:10;27.35;37.42
74376;HTU21D;62812;55.188;61.302;2023-07-20T14:44:40;27.27;36.68
74376;HTU21D;62812;55.188;61.302;2023-07-20T14:47:09;27.22;38.13
74376;HTU21D;62812;55.188;61.302;2023-07-20T14:49:36;27.23;36.66
74376;HTU21D;62812;55.188;61.302;2023-07-20T14:52:03;27.19;36.80
74376;HTU21D;62812;55.188;61.302;2023-07-20T14:54:30;27.05;37.93
74376;HTU21D;62812;55.188;61.302;2023-07-20T14:56:59;26.94;35.86
74376;HTU21D;62812;55.188;61.302;2023-07-20T14:59:30;26.85;38.14
74376;HTU21D;62812;55.188;61.302;2023-07-20T15:01:59;26.81;39.19
74376;HTU21D;62812;55.188;61.302;2023-07-20T15:04:26;26.82;38.40
74376;HTU21D;62812;55.188;61.302;2023-07-20T15:06:56;26.80;38.69
74376;HTU21D;62812;55.188;61.302;2023-07-20T15:09:23;26.82;39.94
74376;HTU21D;62812;55.188;61.302;2023-07-20T15:11:50;26.82;38.15
74376;HTU21D;62812;55.188;61.302;2023-07-20T15:14:17;26.68;35.98
74376;HTU21D;62812;55.188;61.302;2023-07-20T15:16:43;26.61;40.10
74376;HTU21D;62812;55.188;61.302;2023-07-20T15:19:13;26.51;38.45
74376;HTU21D;62812;55.188;61.302;2023-07-20T15:21:40;26.36;41.15
74376;HTU21D;62812;55.188;61.302;2023-07-20T15:24:06;26.33;40.91
74376;HTU21D;62812;55.188;61.302;2023-07-20T15:26:33;26.20;36.76
74376;HTU21D;62812;55.188;61.302;2023-07-20T15:29:06;26.12;36.73
74376;HTU21D;62812;55.188;61.302;2023-07-20T15:31:41;25.99;38.34
74376;HTU21D;62812;55.188;61.302;2023-07-20T15:34:07;25.95;39.39
74376;HTU21D;62812;55.188;61.302;2023-07-20T15:36:41;25.88;38.85
74376;HTU21D;62812;55.188;61.302;2023-07-20T15:49:14;25.57;38.78
74376;HTU21D;62812;55.188;61.302;2023-07-20T15:51:57;25.50;40.94
74376;HTU21D;62812;55.188;61.302;2023-07-20T15:54:27;25.52;42.33
74376;HTU21D;62812;55.188;61.302;2023-07-20T15:56:58;25.46;39.50
74376;HTU21D;62812;55.188;61.302;2023-07-20T15:59:56;25.39;42.13
74376;HTU21D;62812;55.188;61.302;2023-07-20T16:02:39;25.31;42.17
74376;HTU21D;62812;55.188;61.302;2023-07-20T16:05:16;25.21;39.78
74376;HTU21D;62812;55.188;61.302;2023-07-20T16:08:01;25.04;43.70
74376;HTU21D;62812;55.188;61.302;2023-07-20T16:10:34;24.91;41.87
74376;HTU21D;62812;55.188;61.302;2023-07-20T16:13:11;24.87;40.84
74376;HTU21D;62812;55.188;61.302;2023-07-20T16:15:45;24.70;38.48
74376;HTU21D;62812;55.188;61.302;2023-07-20T16:18:13;24.63;40.14
74376;HTU21D;62812;55.188;61.302;2023-07-20T16:20:40;24.56;42.91
74376;HTU21D;62812;55.188;61.302;2023-07-20T16:23:16;24.55;45.81